sensor_id;sensor_type;location;lat;lon;timestamp;temperature;humidity
7970;DHT22;4030;52.362;9.206;2024-02-21T00:02:03;10.50;99.90
7970;DHT22;4030;52.362;9.206;2024-02-21T00:04:29;10.50;99.90
7970;DHT22;4030;52.362;9.206;2024-02-21T00:06:55;10.50;99.90
7970;DHT22;4030;52.362;9.206;2024-02-21T00:09:20;10.50;99.90
7970;DHT22;4030;52.362;9.206;2024-02-21T00:11:46;10.50;99.90
7970;DHT22;4030;52.362;9.206;2024-02-21T00:14:13;10.50;99.90
7970;DHT22;4030;52.362;9.206;2024-02-21T00:16:38;10.50;99.90
7970;DHT22;4030;52.362;9.206;2024-02-21T00:19:04;10.50;99.90
7970;DHT22;4030;52.362;9.206;2024-02-21T00:21:30;10.50;99.90
7970;DHT22;4030;52.362;9.206;2024-02-21T00:23:55;10.50;99.90
7970;DHT22;4030;52.362;9.206;2024-02-21T00:26:21;10.50;99.90
7970;DHT22;4030;52.362;9.206;2024-02-21T00:28:47;10.50;99.90
7970;DHT22;4030;52.362;9.206;2024-02-21T00:31:12;10.50;99.90
7970;DHT22;4030;52.362;9.206;2024-02-21T00:33:38;10.50;99.90
7970;DHT22;4030;52.362;9.206;2024-02-21T00:36:04;10.50;99.90
7970;DHT22;4030;52.362;9.206;2024-02-21T00:38:30;10.50;99.90
7970;DHT22;4030;52.362;9.206;2024-02-21T00:40:55;10.50;99.90
7970;DHT22;4030;52.362;9.206;2024-02-21T00:43:21;10.50;99.90
7970;DHT22;4030;52.362;9.206;2024-02-21T00:45:49;10.50;99.90
7970;DHT22;4030;52.362;9.206;2024-02-21T00:48:15;10.40;99.90
7970;DHT22;4030;52.362;9.206;2024-02-21T00:50:41;10.50;99.90
7970;DHT22;4030;52.362;9.206;2024-02-21T00:53:06;10.40;99.90
7970;DHT22;4030;52.362;9.206;2024-02-21T00:55:32;10.50;99.90
7970;DHT22;4030;52.362;9.206;2024-02-21T00:57:58;10.50;99.90
7970;DHT22;4030;52.362;9.206;2024-02-21T01:00:23;10.40;99.90
7970;DHT22;4030;52.362;9.206;2024-02-21T01:02:49;10.50;99.90
7970;DHT22;4030;52.362;9.206;2024-02-21T01:05:15;10.40;99.90
7970;DHT22;4030;52.362;9.206;2024-02-21T01:07:40;10.40;99.90
7970;DHT22;4030;52.362;9.206;2024-02-21T01:10:06;10.40;99.90
7970;DHT22;4030;52.362;9.206;2024-02-21T01:12:32;10.50;99.90
7970;DHT22;4030;52.362;9.206;2024-02-21T01:14:58;10.40;99.90
7970;DHT22;4030;52.362;9.206;2024-02-21T01:17:24;10.40;99.90
7970;DHT22;4030;52.362;9.206;2024-02-21T01:19:49;10.40;99.90
7970;DHT22;4030;52.362;9.206;2024-02-21T01:22:15;10.40;99.90
7970;DHT22;4030;52.362;9.206;2024-02-21T01:24:41;10.40;99.90
7970;DHT22;4030;52.362;9.206;2024-02-21T01:27:07;10.40;99.90
7970;DHT22;4030;52.362;9.206;2024-02-21T01:29:33;10.40;99.90
7970;DHT22;4030;52.362;9.206;2024-02-21T01:31:59;10.40;99.90
7970;DHT22;4030;52.362;9.206;2024-02-21T01:34:24;10.40;99.90
7970;DHT22;4030;52.362;9.206;2024-02-21T01:36:50;10.40;99.90
7970;DHT22;4030;52.362;9.206;2024-02-21T01:39:16;10.40;99.90
7970;DHT22;4030;52.362;9.206;2024-02-21T01:41:41;10.40;99.90
7970;DHT22;4030;52.362;9.206;2024-02-21T01:44:07;10.40;99.90
7970;DHT22;4030;52.362;9.206;2024-02-21T01:46:33;10.40;99.90
7970;DHT22;4030;52.362;9.206;2024-02-21T01:48:59;10.40;99.90
7970;DHT22;4030;52.362;9.206;2024-02-21T01:51:25;10.40;99.90
7970;DHT22;4030;52.362;9.206;2024-02-21T01:53:51;10.40;99.90
7970;DHT22;4030;52.362;9.206;2024-02-21T01:56:18;10.40;99.90
7970;DHT22;4030;52.362;9.206;2024-02-21T01:58:46;10.40;99.90
7970;DHT22;4030;52.362;9.206;2024-02-21T02:01:13;10.40;99.90
7970;DHT22;4030;52.362;9.206;2024-02-21T02:03:38;10.40;99.90
7970;DHT22;4030;52.362;9.206;2024-02-21T02:06:05;10.40;99.90
7970;DHT22;4030;52.362;9.206;2024-02-21T02:08:32;10.40;99.90
7970;DHT22;4030;52.362;9.206;2024-02-21T02:10:59;10.40;99.90
7970;DHT22;4030;52.362;9.206;2024-02-21T02:13:25;10.40;99.90
7970;DHT22;4030;52.362;9.206;2024-02-21T02:15:50;10.40;99.90
7970;DHT22;4030;52.362;9.206;2024-02-21T02:18:17;10.40;99.90
7970;DHT22;4030;52.362;9.206;2024-02-21T02:20:45;10.40;99.90
7970;DHT22;4030;52.362;9.206;2024-02-21T02:25:54;10.40;99.90
7970;DHT22;4030;52.362;9.206;2024-02-21T02:28:21;10.40;99.90
7970;DHT22;4030;52.362;9.206;2024-02-21T02:30:48;10.40;99.90
7970;DHT22;4030;52.362;9.206;2024-02-21T02:33:14;10.40;99.90
7970;DHT22;4030;52.362;9.206;2024-02-21T02:35:40;10.40;99.90
7970;DHT22;4030;52.362;9.206;2024-02-21T02:38:06;10.40;99.90
7970;DHT22;4030;52.362;9.206;2024-02-21T02:40:33;10.40;99.90
7970;DHT22;4030;52.362;9.206;2024-02-21T02:43:00;10.40;99.90
7970;DHT22;4030;52.362;9.206;2024-02-21T02:45:26;10.40;99.90
7970;DHT22;4030;52.362;9.206;2024-02-21T02:47:55;10.40;99.90
7970;DHT22;4030;52.362;9.206;2024-02-21T02:50:22;10.40;99.90
7970;DHT22;4030;52.362;9.206;2024-02-21T02:52:49;10.40;99.90
7970;DHT22;4030;52.362;9.206;2024-02-21T02:55:14;10.40;99.90
7970;DHT22;4030;52.362;9.206;2024-02-21T02:57:40;10.40;99.90
7970;DHT22;4030;52.362;9.206;2024-02-21T03:00:12;10.40;99.90
7970;DHT22;4030;52.362;9.206;2024-02-21T03:02:39;10.40;99.90
7970;DHT22;4030;52.362;9.206;2024-02-21T03:05:14;10.40;99.90
7970;DHT22;4030;52.362;9.206;2024-02-21T03:07:49;10.40;99.90
7970;DHT22;4030;52.362;9.206;2024-02-21T03:10:15;10.40;99.90
7970;DHT22;4030;52.362;9.206;2024-02-21T03:12:43;10.40;99.90
7970;DHT22;4030;52.362;9.206;2024-02-21T03:15:09;10.40;99.90
7970;DHT22;4030;52.362;9.206;2024-02-21T03:17:35;10.40;99.90
7970;DHT22;4030;52.362;9.206;2024-02-21T03:20:02;10.40;99.90
7970;DHT22;4030;52.362;9.206;2024-02-21T03:22:31;10.40;99.90
7970;DHT22;4030;52.362;9.206;2024-02-21T03:24:57;10.40;99.90
7970;DHT22;4030;52.362;9.206;2024-02-21T03:27:23;10.40;99.90
7970;DHT22;4030;52.362;9.206;2024-02-21T03:29:49;10.40;99.90
7970;DHT22;4030;52.362;9.206;2024-02-21T03:32:14;10.40;99.90
7970;DHT22;4030;52.362;9.206;2024-02-21T03:34:40;10.40;99.90
7970;DHT22;4030;52.362;9.206;2024-02-21T03:37:06;10.40;99.90
7970;DHT22;4030;52.362;9.206;2024-02-21T03:39:31;10.40;99.90
7970;DHT22;4030;52.362;9.206;2024-02-21T03:41:58;10.40;99.90
7970;DHT22;4030;52.362;9.206;2024-02-21T03:44:26;10.40;99.90
7970;DHT22;4030;52.362;9.206;2024-02-21T03:46:52;10.30;99.90
7970;DHT22;4030;52.362;9.206;2024-02-21T03:49:18;10.40;99.90
7970;DHT22;4030;52.362;9.206;2024-02-21T03:51:44;10.40;99.90
7970;DHT22;4030;52.362;9.206;2024-02-21T03:54:09;10.30;99.90
7970;DHT22;4030;52.362;9.206;2024-02-21T03:56:38;10.30;99.90
7970;DHT22;4030;52.362;9.206;2024-02-21T03:59:08;10.30;99.90
7970;DHT22;4030;52.362;9.206;2024-02-21T04:01:34;10.30;99.90
7970;DHT22;4030;52.362;9.206;2024-02-21T04:04:01;10.30;99.90
7970;DHT22;4030;52.362;9.206;2024-02-21T04:06:27;10.30;99.90
7970;DHT22;4030;52.362;9.206;2024-02-21T04:08:52;10.30;99.90
7970;DHT22;4030;52.362;9.206;2024-02-21T04:11:18;10.30;99.90
7970;DHT22;4030;52.362;9.206;2024-02-21T04:13:44;10.30;99.90
7970;DHT22;4030;52.362;9.206;2024-02-21T04:16:10;10.30;99.90
7970;DHT22;4030;52.362;9.206;2024-02-21T04:18:36;10.30;99.90
7970;DHT22;4030;52.362;9.206;2024-02-21T04:21:02;10.30;99.90
7970;DHT22;4030;52.362;9.206;2024-02-21T04:23:27;10.30;99.90
7970;DHT22;4030;52.362;9.206;2024-02-21T04:25:53;10.30;99.90
7970;DHT22;4030;52.362;9.206;2024-02-21T04:28:19;10.30;99.90
7970;DHT22;4030;52.362;9.206;2024-02-21T04:30:44;10.30;99.90
7970;DHT22;4030;52.362;9.206;2024-02-21T04:33:10;10.40;99.90
7970;DHT22;4030;52.362;9.206;2024-02-21T04:35:36;10.30;99.90
7970;DHT22;4030;52.362;9.206;2024-02-21T04:38:02;10.30;99.90
7970;DHT22;4030;52.362;9.206;2024-02-21T04:40:28;10.30;99.90
7970;DHT22;4030;52.362;9.206;2024-02-21T04:42:54;10.30;99.90
7970;DHT22;4030;52.362;9.206;2024-02-21T04:45:19;10.30;99.90
7970;DHT22;4030;52.362;9.206;2024-02-21T04:47:45;10.30;99.90
7970;DHT22;4030;52.362;9.206;2024-02-21T04:50:11;10.30;99.90
7970;DHT22;4030;52.362;9.206;2024-02-21T04:52:36;10.30;99.90
7970;DHT22;4030;52.362;9.206;2024-02-21T04:55:02;10.30;99.90
7970;DHT22;4030;52.362;9.206;2024-02-21T04:57:28;10.30;99.90
7970;DHT22;4030;52.362;9.206;2024-02-21T04:59:53;10.30;99.90
7970;DHT22;4030;52.362;9.206;2024-02-21T05:02:19;10.30;99.90
7970;DHT22;4030;52.362;9.206;2024-02-21T05:04:47;10.30;99.90
7970;DHT22;4030;52.362;9.206;2024-02-21T05:07:13;10.30;99.90
7970;DHT22;4030;52.362;9.206;2024-02-21T05:09:39;10.30;99.90
7970;DHT22;4030;52.362;9.206;2024-02-21T05:12:04;10.30;99.90
7970;DHT22;4030;52.362;9.206;2024-02-21T05:14:30;10.30;99.90
7970;DHT22;4030;52.362;9.206;2024-02-21T05:16:56;10.30;99.90
7970;DHT22;4030;52.362;9.206;2024-02-21T05:19:21;10.30;99.90
7970;DHT22;4030;52.362;9.206;2024-02-21T05:21:47;10.30;99.90
7970;DHT22;4030;52.362;9.206;2024-02-21T05:24:13;10.30;99.90
7970;DHT22;4030;52.362;9.206;2024-02-21T05:26:38;10.30;99.90
7970;DHT22;4030;52.362;9.206;2024-02-21T05:29:04;10.20;99.90
7970;DHT22;4030;52.362;9.206;2024-02-21T05:34:20;10.30;99.90
7970;DHT22;4030;52.362;9.206;2024-02-21T05:36:46;10.30;99.90
7970;DHT22;4030;52.362;9.206;2024-02-21T05:39:13;10.30;99.90
7970;DHT22;4030;52.362;9.206;2024-02-21T05:41:40;10.30;99.90
7970;DHT22;4030;52.362;9.206;2024-02-21T05:44:05;10.30;99.90
7970;DHT22;4030;52.362;9.206;2024-02-21T05:46:31;10.30;99.90
7970;DHT22;4030;52.362;9.206;2024-02-21T05:48:57;10.30;99.90
7970;DHT22;4030;52.362;9.206;2024-02-21T05:51:23;10.30;99.90
7970;DHT22;4030;52.362;9.206;2024-02-21T05:53:48;10.30;99.90
7970;DHT22;4030;52.362;9.206;2024-02-21T05:56:14;10.30;99.90
7970;DHT22;4030;52.362;9.206;2024-02-21T05:58:41;10.20;99.90
7970;DHT22;4030;52.362;9.206;2024-02-21T06:01:07;10.20;99.90
7970;DHT22;4030;52.362;9.206;2024-02-21T06:03:33;10.20;99.90
7970;DHT22;4030;52.362;9.206;2024-02-21T06:06:00;10.20;99.90
7970;DHT22;4030;52.362;9.206;2024-02-21T06:08:26;10.20;99.90
7970;DHT22;4030;52.362;9.206;2024-02-21T06:10:51;10.20;99.90
7970;DHT22;4030;52.362;9.206;2024-02-21T06:13:26;10.20;99.90
7970;DHT22;4030;52.362;9.206;2024-02-21T06:15:52;10.20;99.90
7970;DHT22;4030;52.362;9.206;2024-02-21T06:18:18;10.20;99.90
7970;DHT22;4030;52.362;9.206;2024-02-21T06:20:45;10.20;99.90
7970;DHT22;4030;52.362;9.206;2024-02-21T06:23:12;10.20;99.90
7970;DHT22;4030;52.362;9.206;2024-02-21T06:25:38;10.20;99.90
7970;DHT22;4030;52.362;9.206;2024-02-21T06:28:05;10.20;99.90
7970;DHT22;4030;52.362;9.206;2024-02-21T06:30:31;10.20;99.90
7970;DHT22;4030;52.362;9.206;2024-02-21T06:32:56;10.20;99.90
7970;DHT22;4030;52.362;9.206;2024-02-21T06:35:22;10.20;99.90
7970;DHT22;4030;52.362;9.206;2024-02-21T06:37:50;10.20;99.90
7970;DHT22;4030;52.362;9.206;2024-02-21T06:40:21;10.20;99.90
7970;DHT22;4030;52.362;9.206;2024-02-21T06:42:48;10.20;99.90
7970;DHT22;4030;52.362;9.206;2024-02-21T06:45:15;10.20;99.90
7970;DHT22;4030;52.362;9.206;2024-02-21T06:47:40;10.20;99.90
7970;DHT22;4030;52.362;9.206;2024-02-21T06:50:06;10.20;99.90
7970;DHT22;4030;52.362;9.206;2024-02-21T06:52:34;10.20;99.90
7970;DHT22;4030;52.362;9.206;2024-02-21T06:54:59;10.20;99.90
7970;DHT22;4030;52.362;9.206;2024-02-21T06:57:25;10.20;99.90
7970;DHT22;4030;52.362;9.206;2024-02-21T06:59:51;10.20;99.90
7970;DHT22;4030;52.362;9.206;2024-02-21T07:02:17;10.20;99.90
7970;DHT22;4030;52.362;9.206;2024-02-21T07:04:43;10.20;99.90
7970;DHT22;4030;52.362;9.206;2024-02-21T07:07:09;10.20;99.90
7970;DHT22;4030;52.362;9.206;2024-02-21T07:09:34;10.20;99.90
7970;DHT22;4030;52.362;9.206;2024-02-21T07:12:00;10.20;99.90
7970;DHT22;4030;52.362;9.206;2024-02-21T07:14:28;10.20;99.90
7970;DHT22;4030;52.362;9.206;2024-02-21T07:16:53;10.20;99.90
7970;DHT22;4030;52.362;9.206;2024-02-21T07:19:20;10.20;99.90
7970;DHT22;4030;52.362;9.206;2024-02-21T07:21:46;10.20;99.90
7970;DHT22;4030;52.362;9.206;2024-02-21T07:24:11;10.30;99.90
7970;DHT22;4030;52.362;9.206;2024-02-21T07:26:40;10.30;99.90
7970;DHT22;4030;52.362;9.206;2024-02-21T07:29:08;10.30;99.90
7970;DHT22;4030;52.362;9.206;2024-02-21T07:31:42;10.30;99.90
7970;DHT22;4030;52.362;9.206;2024-02-21T07:34:08;10.30;99.90
7970;DHT22;4030;52.362;9.206;2024-02-21T07:36:34;10.30;99.90
7970;DHT22;4030;52.362;9.206;2024-02-21T07:39:00;10.30;99.90
7970;DHT22;4030;52.362;9.206;2024-02-21T07:41:26;10.30;99.90
7970;DHT22;4030;52.362;9.206;2024-02-21T07:43:52;10.40;99.90
7970;DHT22;4030;52.362;9.206;2024-02-21T07:46:20;10.40;99.90
7970;DHT22;4030;52.362;9.206;2024-02-21T07:48:46;10.40;99.90
7970;DHT22;4030;52.362;9.206;2024-02-21T07:51:12;10.50;99.90
7970;DHT22;4030;52.362;9.206;2024-02-21T07:53:41;10.50;99.90
7970;DHT22;4030;52.362;9.206;2024-02-21T07:56:14;10.50;99.90
7970;DHT22;4030;52.362;9.206;2024-02-21T07:58:43;10.50;99.90
7970;DHT22;4030;52.362;9.206;2024-02-21T08:01:10;10.50;99.90
7970;DHT22;4030;52.362;9.206;2024-02-21T08:03:35;10.60;99.90
7970;DHT22;4030;52.362;9.206;2024-02-21T08:06:02;10.60;99.90
7970;DHT22;4030;52.362;9.206;2024-02-21T08:08:28;10.60;99.90
7970;DHT22;4030;52.362;9.206;2024-02-21T08:10:54;10.60;99.90
7970;DHT22;4030;52.362;9.206;2024-02-21T08:13:20;10.60;99.90
7970;DHT22;4030;52.362;9.206;2024-02-21T08:15:46;10.60;99.90
7970;DHT22;4030;52.362;9.206;2024-02-21T08:18:11;10.70;99.90
7970;DHT22;4030;52.362;9.206;2024-02-21T08:20:37;10.70;99.90
7970;DHT22;4030;52.362;9.206;2024-02-21T08:23:03;10.70;99.90
7970;DHT22;4030;52.362;9.206;2024-02-21T08:25:29;10.70;99.90
7970;DHT22;4030;52.362;9.206;2024-02-21T08:27:58;10.70;99.90
7970;DHT22;4030;52.362;9.206;2024-02-21T08:30:24;10.80;99.90
7970;DHT22;4030;52.362;9.206;2024-02-21T08:32:50;10.80;99.90
7970;DHT22;4030;52.362;9.206;2024-02-21T08:35:16;10.80;99.90
7970;DHT22;4030;52.362;9.206;2024-02-21T08:37:44;10.90;99.90
7970;DHT22;4030;52.362;9.206;2024-02-21T08:40:10;10.80;99.90
7970;DHT22;4030;52.362;9.206;2024-02-21T08:42:36;10.90;99.90
7970;DHT22;4030;52.362;9.206;2024-02-21T08:45:04;10.90;99.90
7970;DHT22;4030;52.362;9.206;2024-02-21T08:47:30;11.00;99.90
7970;DHT22;4030;52.362;9.206;2024-02-21T08:49:55;11.00;99.90
7970;DHT22;4030;52.362;9.206;2024-02-21T08:52:21;11.00;99.90
7970;DHT22;4030;52.362;9.206;2024-02-21T08:54:47;11.00;99.90
7970;DHT22;4030;52.362;9.206;2024-02-21T08:57:12;11.10;99.90
7970;DHT22;4030;52.362;9.206;2024-02-21T08:59:41;11.10;99.90
7970;DHT22;4030;52.362;9.206;2024-02-21T09:02:07;11.10;99.90
7970;DHT22;4030;52.362;9.206;2024-02-21T09:04:34;11.20;99.90
7970;DHT22;4030;52.362;9.206;2024-02-21T09:06:59;11.20;99.90
7970;DHT22;4030;52.362;9.206;2024-02-21T09:09:25;11.20;99.90
7970;DHT22;4030;52.362;9.206;2024-02-21T09:11:51;11.30;99.90
7970;DHT22;4030;52.362;9.206;2024-02-21T09:14:17;11.30;99.90
7970;DHT22;4030;52.362;9.206;2024-02-21T09:16:43;11.30;99.90
7970;DHT22;4030;52.362;9.206;2024-02-21T09:19:09;11.40;99.90
7970;DHT22;4030;52.362;9.206;2024-02-21T09:21:37;11.40;99.90
7970;DHT22;4030;52.362;9.206;2024-02-21T09:24:04;11.40;99.80
7970;DHT22;4030;52.362;9.206;2024-02-21T09:26:30;11.50;99.70
7970;DHT22;4030;52.362;9.206;2024-02-21T09:28:56;11.50;99.70
7970;DHT22;4030;52.362;9.206;2024-02-21T09:31:22;11.60;99.70
7970;DHT22;4030;52.362;9.206;2024-02-21T09:33:47;11.70;99.60
7970;DHT22;4030;52.362;9.206;2024-02-21T09:36:14;11.70;99.50
7970;DHT22;4030;52.362;9.206;2024-02-21T09:38:40;11.80;99.40
7970;DHT22;4030;52.362;9.206;2024-02-21T09:41:18;11.90;99.40
7970;DHT22;4030;52.362;9.206;2024-02-21T09:43:44;11.90;99.30
7970;DHT22;4030;52.362;9.206;2024-02-21T09:46:16;12.00;99.20
7970;DHT22;4030;52.362;9.206;2024-02-21T09:48:58;12.00;99.10
7970;DHT22;4030;52.362;9.206;2024-02-21T09:51:40;12.10;99.00
7970;DHT22;4030;52.362;9.206;2024-02-21T09:54:07;12.20;99.00
7970;DHT22;4030;52.362;9.206;2024-02-21T09:56:33;12.20;98.90
7970;DHT22;4030;52.362;9.206;2024-02-21T09:58:59;12.30;98.80
7970;DHT22;4030;52.362;9.206;2024-02-21T10:01:30;12.40;98.80
7970;DHT22;4030;52.362;9.206;2024-02-21T10:03:57;12.50;98.70
7970;DHT22;4030;52.362;9.206;2024-02-21T10:06:23;12.50;98.60
7970;DHT22;4030;52.362;9.206;2024-02-21T10:08:55;12.60;98.70
7970;DHT22;4030;52.362;9.206;2024-02-21T10:11:25;12.70;98.60
7970;DHT22;4030;52.362;9.206;2024-02-21T10:13:51;12.80;98.60
7970;DHT22;4030;52.362;9.206;2024-02-21T10:16:29;12.90;98.60
7970;DHT22;4030;52.362;9.206;2024-02-21T10:18:55;13.00;98.60
7970;DHT22;4030;52.362;9.206;2024-02-21T10:21:20;13.10;98.40
7970;DHT22;4030;52.362;9.206;2024-02-21T10:23:49;13.20;98.30
7970;DHT22;4030;52.362;9.206;2024-02-21T10:26:19;13.30;98.30
7970;DHT22;4030;52.362;9.206;2024-02-21T10:28:46;13.40;98.50
7970;DHT22;4030;52.362;9.206;2024-02-21T10:31:27;13.50;97.90
7970;DHT22;4030;52.362;9.206;2024-02-21T10:33:57;13.60;97.60
7970;DHT22;4030;52.362;9.206;2024-02-21T10:36:24;13.70;97.50
7970;DHT22;4030;52.362;9.206;2024-02-21T10:38:51;13.80;97.30
7970;DHT22;4030;52.362;9.206;2024-02-21T10:41:19;13.90;97.20
7970;DHT22;4030;52.362;9.206;2024-02-21T10:43:53;14.10;97.10
7970;DHT22;4030;52.362;9.206;2024-02-21T10:46:21;14.20;96.90
7970;DHT22;4030;52.362;9.206;2024-02-21T10:49:07;14.20;96.70
7970;DHT22;4030;52.362;9.206;2024-02-21T10:51:37;14.30;96.60
7970;DHT22;4030;52.362;9.206;2024-02-21T10:57:13;14.50;96.20
7970;DHT22;4030;52.362;9.206;2024-02-21T10:59:40;14.50;96.00
7970;DHT22;4030;52.362;9.206;2024-02-21T11:02:06;14.50;95.60
7970;DHT22;4030;52.362;9.206;2024-02-21T11:04:33;14.60;95.40
7970;DHT22;4030;52.362;9.206;2024-02-21T11:07:04;14.60;95.20
7970;DHT22;4030;52.362;9.206;2024-02-21T11:09:31;14.60;95.00
7970;DHT22;4030;52.362;9.206;2024-02-21T11:11:58;14.60;94.90
7970;DHT22;4030;52.362;9.206;2024-02-21T11:14:27;14.60;94.90
7970;DHT22;4030;52.362;9.206;2024-02-21T11:16:53;14.70;94.90
7970;DHT22;4030;52.362;9.206;2024-02-21T11:19:23;14.60;94.70
7970;DHT22;4030;52.362;9.206;2024-02-21T11:21:51;14.70;94.80
7970;DHT22;4030;52.362;9.206;2024-02-21T11:24:32;14.80;94.70
7970;DHT22;4030;52.362;9.206;2024-02-21T11:27:15;16.00;95.00
7970;DHT22;4030;52.362;9.206;2024-02-21T11:29:45;14.80;94.20
7970;DHT22;4030;52.362;9.206;2024-02-21T11:32:15;14.90;94.10
7970;DHT22;4030;52.362;9.206;2024-02-21T11:34:41;14.90;94.00
7970;DHT22;4030;52.362;9.206;2024-02-21T11:37:19;15.00;94.10
7970;DHT22;4030;52.362;9.206;2024-02-21T11:39:44;15.10;94.00
7970;DHT22;4030;52.362;9.206;2024-02-21T11:42:10;15.30;93.80
7970;DHT22;4030;52.362;9.206;2024-02-21T11:44:38;15.40;93.70
7970;DHT22;4030;52.362;9.206;2024-02-21T11:47:05;15.50;93.50
7970;DHT22;4030;52.362;9.206;2024-02-21T11:49:37;15.70;93.30
7970;DHT22;4030;52.362;9.206;2024-02-21T11:52:07;15.70;93.50
7970;DHT22;4030;52.362;9.206;2024-02-21T11:54:33;15.80;93.00
7970;DHT22;4030;52.362;9.206;2024-02-21T11:57:00;15.80;92.90
7970;DHT22;4030;52.362;9.206;2024-02-21T11:59:26;15.80;92.80
7970;DHT22;4030;52.362;9.206;2024-02-21T12:01:53;15.80;92.80
7970;DHT22;4030;52.362;9.206;2024-02-21T12:04:19;15.80;92.60
7970;DHT22;4030;52.362;9.206;2024-02-21T12:06:46;15.90;92.50
7970;DHT22;4030;52.362;9.206;2024-02-21T12:09:15;15.90;92.50
7970;DHT22;4030;52.362;9.206;2024-02-21T12:11:41;15.80;92.20
7970;DHT22;4030;52.362;9.206;2024-02-21T12:14:08;15.90;92.30
7970;DHT22;4030;52.362;9.206;2024-02-21T12:16:34;16.00;92.30
7970;DHT22;4030;52.362;9.206;2024-02-21T12:19:02;16.10;92.30
7970;DHT22;4030;52.362;9.206;2024-02-21T12:21:32;16.10;92.20
7970;DHT22;4030;52.362;9.206;2024-02-21T12:24:12;16.10;92.20
7970;DHT22;4030;52.362;9.206;2024-02-21T12:26:41;16.10;92.10
7970;DHT22;4030;52.362;9.206;2024-02-21T12:29:07;16.10;92.00
7970;DHT22;4030;52.362;9.206;2024-02-21T12:31:39;16.10;91.90
7970;DHT22;4030;52.362;9.206;2024-02-21T12:34:05;16.10;92.00
7970;DHT22;4030;52.362;9.206;2024-02-21T12:36:31;16.10;92.10
7970;DHT22;4030;52.362;9.206;2024-02-21T12:38:58;16.10;92.10
7970;DHT22;4030;52.362;9.206;2024-02-21T12:41:24;16.10;92.10
7970;DHT22;4030;52.362;9.206;2024-02-21T12:43:52;16.10;92.00
7970;DHT22;4030;52.362;9.206;2024-02-21T12:46:18;16.10;91.90
7970;DHT22;4030;52.362;9.206;2024-02-21T12:48:44;16.00;91.80
7970;DHT22;4030;52.362;9.206;2024-02-21T12:51:10;16.00;91.80
7970;DHT22;4030;52.362;9.206;2024-02-21T12:53:36;15.90;91.80
7970;DHT22;4030;52.362;9.206;2024-02-21T12:56:01;15.90;91.70
7970;DHT22;4030;52.362;9.206;2024-02-21T12:58:27;15.80;91.70
7970;DHT22;4030;52.362;9.206;2024-02-21T13:00:57;15.80;91.70
7970;DHT22;4030;52.362;9.206;2024-02-21T13:03:22;15.70;91.40
7970;DHT22;4030;52.362;9.206;2024-02-21T13:05:48;15.70;91.50
7970;DHT22;4030;52.362;9.206;2024-02-21T13:08:14;15.60;91.50
7970;DHT22;4030;52.362;9.206;2024-02-21T13:10:39;15.60;91.60
7970;DHT22;4030;52.362;9.206;2024-02-21T13:13:05;15.60;91.70
7970;DHT22;4030;52.362;9.206;2024-02-21T13:15:31;15.50;91.70
7970;DHT22;4030;52.362;9.206;2024-02-21T13:17:57;15.50;91.80
7970;DHT22;4030;52.362;9.206;2024-02-21T13:20:24;15.40;91.80
7970;DHT22;4030;52.362;9.206;2024-02-21T13:22:50;15.40;91.70
7970;DHT22;4030;52.362;9.206;2024-02-21T13:25:16;15.30;91.80
7970;DHT22;4030;52.362;9.206;2024-02-21T13:27:45;15.30;91.90
7970;DHT22;4030;52.362;9.206;2024-02-21T13:30:12;15.20;91.90
7970;DHT22;4030;52.362;9.206;2024-02-21T13:32:38;15.20;91.90
7970;DHT22;4030;52.362;9.206;2024-02-21T13:35:04;15.20;91.90
7970;DHT22;4030;52.362;9.206;2024-02-21T13:37:31;15.10;91.90
7970;DHT22;4030;52.362;9.206;2024-02-21T13:39:57;15.20;92.00
7970;DHT22;4030;52.362;9.206;2024-02-21T13:42:23;15.10;92.00
7970;DHT22;4030;52.362;9.206;2024-02-21T13:44:52;15.00;91.90
7970;DHT22;4030;52.362;9.206;2024-02-21T13:47:18;15.00;91.90
7970;DHT22;4030;52.362;9.206;2024-02-21T13:49:43;14.90;91.90
7970;DHT22;4030;52.362;9.206;2024-02-21T13:52:09;14.90;91.90
7970;DHT22;4030;52.362;9.206;2024-02-21T13:54:35;14.80;91.90
7970;DHT22;4030;52.362;9.206;2024-02-21T13:57:01;14.80;92.00
7970;DHT22;4030;52.362;9.206;2024-02-21T13:59:28;14.80;92.00
7970;DHT22;4030;52.362;9.206;2024-02-21T14:01:53;14.70;92.00
7970;DHT22;4030;52.362;9.206;2024-02-21T14:04:19;14.70;92.10
7970;DHT22;4030;52.362;9.206;2024-02-21T14:06:45;14.70;92.10
7970;DHT22;4030;52.362;9.206;2024-02-21T14:09:12;14.60;92.10
7970;DHT22;4030;52.362;9.206;2024-02-21T14:11:38;14.60;92.10
7970;DHT22;4030;52.362;9.206;2024-02-21T14:14:05;14.50;92.10
7970;DHT22;4030;52.362;9.206;2024-02-21T14:16:31;14.60;92.00
7970;DHT22;4030;52.362;9.206;2024-02-21T14:18:57;14.40;92.00
7970;DHT22;4030;52.362;9.206;2024-02-21T14:21:23;14.40;92.00
7970;DHT22;4030;52.362;9.206;2024-02-21T14:23:49;14.40;92.00
7970;DHT22;4030;52.362;9.206;2024-02-21T14:26:15;14.30;92.00
7970;DHT22;4030;52.362;9.206;2024-02-21T14:28:40;14.30;92.10
7970;DHT22;4030;52.362;9.206;2024-02-21T14:31:07;14.30;92.10
7970;DHT22;4030;52.362;9.206;2024-02-21T14:33:35;14.20;92.20
7970;DHT22;4030;52.362;9.206;2024-02-21T14:36:01;14.10;92.20
7970;DHT22;4030;52.362;9.206;2024-02-21T14:38:28;14.10;92.20
7970;DHT22;4030;52.362;9.206;2024-02-21T14:40:53;14.10;92.40
7970;DHT22;4030;52.362;9.206;2024-02-21T14:43:20;14.00;92.40
7970;DHT22;4030;52.362;9.206;2024-02-21T14:45:48;14.00;92.40
7970;DHT22;4030;52.362;9.206;2024-02-21T14:48:14;14.00;92.50
7970;DHT22;4030;52.362;9.206;2024-02-21T14:50:40;14.00;92.60
7970;DHT22;4030;52.362;9.206;2024-02-21T14:53:08;14.00;92.60
7970;DHT22;4030;52.362;9.206;2024-02-21T14:55:37;13.90;92.70
7970;DHT22;4030;52.362;9.206;2024-02-21T14:58:06;13.90;92.70
7970;DHT22;4030;52.362;9.206;2024-02-21T15:00:32;13.90;92.80
7970;DHT22;4030;52.362;9.206;2024-02-21T15:02:58;13.90;92.90
7970;DHT22;4030;52.362;9.206;2024-02-21T15:05:24;13.90;92.90
7970;DHT22;4030;52.362;9.206;2024-02-21T15:07:50;13.90;92.90
7970;DHT22;4030;52.362;9.206;2024-02-21T15:10:17;13.90;93.00
7970;DHT22;4030;52.362;9.206;2024-02-21T15:12:46;13.90;93.00
7970;DHT22;4030;52.362;9.206;2024-02-21T15:15:12;13.90;93.00
7970;DHT22;4030;52.362;9.206;2024-02-21T15:17:38;13.90;93.10
7970;DHT22;4030;52.362;9.206;2024-02-21T15:20:04;13.90;93.20
7970;DHT22;4030;52.362;9.206;2024-02-21T15:22:35;13.90;93.20
7970;DHT22;4030;52.362;9.206;2024-02-21T15:25:01;13.90;93.20
7970;DHT22;4030;52.362;9.206;2024-02-21T15:27:30;13.90;93.30
7970;DHT22;4030;52.362;9.206;2024-02-21T15:29:55;13.80;93.30
7970;DHT22;4030;52.362;9.206;2024-02-21T15:32:22;13.80;93.20
7970;DHT22;4030;52.362;9.206;2024-02-21T15:34:48;13.80;93.20
7970;DHT22;4030;52.362;9.206;2024-02-21T15:37:14;13.80;93.00
7970;DHT22;4030;52.362;9.206;2024-02-21T15:39:42;13.70;92.90
7970;DHT22;4030;52.362;9.206;2024-02-21T15:42:11;13.70;92.90
7970;DHT22;4030;52.362;9.206;2024-02-21T15:44:37;13.70;93.00
7970;DHT22;4030;52.362;9.206;2024-02-21T15:47:03;13.60;93.00
7970;DHT22;4030;52.362;9.206;2024-02-21T15:49:28;13.60;93.50
7970;DHT22;4030;52.362;9.206;2024-02-21T15:51:54;13.50;93.10
7970;DHT22;4030;52.362;9.206;2024-02-21T15:54:20;13.50;93.20
7970;DHT22;4030;52.362;9.206;2024-02-21T15:56:46;13.40;93.20
7970;DHT22;4030;52.362;9.206;2024-02-21T15:59:12;13.40;93.20
7970;DHT22;4030;52.362;9.206;2024-02-21T16:01:38;13.40;93.30
7970;DHT22;4030;52.362;9.206;2024-02-21T16:04:04;13.30;93.20
7970;DHT22;4030;52.362;9.206;2024-02-21T16:06:31;13.30;93.30
7970;DHT22;4030;52.362;9.206;2024-02-21T16:08:57;13.30;93.30